Time;durP1;ratioP1;P1;durP2;ratioP2;P2;SDS_P1;SDS_P2;PMS_P1;PMS_P2;Temp;Humidity;BMP_temperature;BMP_pressure;BME280_temperature;BME280_humidity;BME280_pressure;Samples;Min_cycle;Max_cycle;Signal;HPM_P1;HPM_P2
2022/09/05 00:00:54;;;;;;;2.13;1.58;;;17.00;76.40;;;;;;4975263;28;20234;-77
2022/09/05 00:03:28;;;;;;;3.10;1.77;;;16.90;76.70;;;;;;4976069;28;20241;-78
2022/09/05 00:06:04;;;;;;;3.90;1.70;;;16.80;76.70;;;;;;5003889;28;20222;-79
2022/09/05 00:08:43;;;;;;;2.97;1.63;;;16.70;77.00;;;;;;4977040;28;20225;-78
2022/09/05 00:11:18;;;;;;;3.77;1.73;;;16.70;77.30;;;;;;4980004;28;21045;-78
2022/09/05 00:13:50;;;;;;;3.37;1.80;;;16.60;77.40;;;;;;4985440;28;20236;-78
2022/09/05 00:16:37;;;;;;;2.80;1.80;;;16.50;77.60;;;;;;4994257;28;20694;-77
2022/09/05 00:19:14;;;;;;;2.75;1.85;;;16.50;78.40;;;;;;4979287;28;20514;-78
2022/09/05 00:21:58;;;;;;;2.37;1.63;;;16.40;78.40;;;;;;4973483;28;20240;-79
2022/09/05 00:24:42;;;;;;;2.53;1.70;;;16.40;78.90;;;;;;4981448;28;20229;-78
2022/09/05 00:27:17;;;;;;;4.30;1.70;;;16.30;79.40;;;;;;4979259;28;20860;-78
2022/09/05 00:29:58;;;;;;;2.90;1.70;;;16.30;79.20;;;;;;4976833;28;20250;-79
2022/09/05 00:32:35;;;;;;;2.23;1.90;;;16.20;79.70;;;;;;4977985;28;20249;-78
2022/09/05 00:35:21;;;;;;;2.37;1.70;;;16.10;79.70;;;;;;4975260;28;20289;-79
2022/09/05 00:37:50;;;;;;;4.07;2.03;;;16.10;80.60;;;;;;4985731;28;20317;-79
2022/09/05 00:40:28;;;;;;;2.20;1.67;;;16.00;80.50;;;;;;4980019;28;20221;-79
2022/09/05 00:42:58;;;;;;;3.60;1.87;;;16.00;81.20;;;;;;4979690;28;20281;-78
2022/09/05 00:45:32;;;;;;;4.43;2.03;;;15.90;81.20;;;;;;4974713;28;20229;-79
2022/09/05 00:48:08;;;;;;;3.23;2.00;;;15.90;81.70;;;;;;4988937;28;20726;-77
2022/09/05 00:50:45;;;;;;;2.60;2.10;;;15.80;82.00;;;;;;4989526;28;20240;-78
2022/09/05 00:53:18;;;;;;;4.40;2.20;;;15.70;82.50;;;;;;4985927;28;20246;-78
2022/09/05 00:55:54;;;;;;;3.35;1.85;;;15.80;82.50;;;;;;4992846;28;20276;-79
2022/09/05 00:58:41;;;;;;;2.90;1.90;;;15.70;83.00;;;;;;4993293;28;20222;-79
2022/09/05 01:01:25;;;;;;;2.47;1.60;;;15.70;83.50;;;;;;4991197;28;20309;-78
2022/09/05 01:04:05;;;;;;;3.07;1.90;;;15.70;83.70;;;;;;4988583;28;20257;-77
2022/09/05 01:06:42;;;;;;;3.57;2.00;;;15.60;83.50;;;;;;4979602;28;20613;-78
2022/09/05 01:09:26;;;;;;;3.13;2.00;;;15.70;84.20;;;;;;4977619;28;20222;-78
2022/09/05 01:12:14;;;;;;;3.13;2.20;;;15.50;84.70;;;;;;4980343;28;20256;-78
2022/09/05 01:14:59;;;;;;;3.40;1.90;;;15.50;84.80;;;;;;4987788;28;20237;-78
2022/09/05 01:17:38;;;;;;;2.80;1.60;;;15.50;85.10;;;;;;4990915;28;20229;-79
2022/09/05 01:20:17;;;;;;;4.03;2.00;;;15.50;85.40;;;;;;4979203;28;20689;-78
2022/09/05 01:23:20;;;;;;;2.70;1.97;;;15.40;86.10;;;;;;4977625;28;20218;-78
2022/09/05 01:26:08;;;;;;;3.30;1.83;;;15.40;87.00;;;;;;4976593;28;20229;-78
2022/09/05 01:28:44;;;;;;;3.07;2.33;;;15.40;86.70;;;;;;4979340;28;20305;-78
2022/09/05 01:31:19;;;;;;;2.33;1.90;;;15.30;86.90;;;;;;4974049;28;20313;-79
2022/09/05 01:33:52;;;;;;;2.37;1.97;;;15.30;87.30;;;;;;4977937;28;20261;-78
2022/09/05 01:36:40;;;;;;;2.90;2.13;;;15.30;87.50;;;;;;4978999;28;20293;-78
2022/09/05 01:39:18;;;;;;;2.60;2.00;;;15.20;87.90;;;;;;4974878;28;20594;-77
2022/09/05 01:41:53;;;;;;;2.80;1.93;;;15.20;88.10;;;;;;4978178;28;21019;-77
2022/09/05 01:44:46;;;;;;;3.27;2.10;;;15.20;88.40;;;;;;4977468;28;20231;-78
2022/09/05 01:47:42;;;;;;;2.67;2.20;;;15.10;89.10;;;;;;4979072;28;20222;-77
2022/09/05 01:50:16;;;;;;;3.83;2.50;;;15.10;89.60;;;;;;4977873;28;20230;-77
2022/09/05 01:53:06;;;;;;;4.53;2.27;;;15.10;89.20;;;;;;4995876;28;20222;-77
2022/09/05 01:55:51;;;;;;;3.37;2.37;;;15.10;90.00;;;;;;4994379;28;20221;-77
2022/09/05 01:58:26;;;;;;;2.47;1.90;;;15.10;90.00;;;;;;4971890;28;20217;-78
2022/09/05 02:01:06;;;;;;;3.30;2.30;;;15.10;89.90;;;;;;4987985;28;20295;-77
2022/09/05 02:03:38;;;;;;;3.83;2.40;;;15.00;90.20;;;;;;4983350;28;20233;-77
2022/09/05 02:06:23;;;;;;;2.70;2.37;;;15.00;90.30;;;;;;4982514;28;20309;-77
2022/09/05 02:08:59;;;;;;;3.50;2.10;;;15.00;90.60;;;;;;4974181;28;20301;-76
2022/09/05 02:11:40;;;;;;;4.20;2.20;;;15.00;90.60;;;;;;4975782;28;20218;-77
2022/09/05 02:14:18;;;;;;;4.47;2.47;;;15.00;90.80;;;;;;4982551;28;20232;-77
2022/09/05 02:16:47;;;;;;;5.13;2.53;;;15.00;90.70;;;;;;4993377;28;21356;-77
2022/09/05 02:19:20;;;;;;;2.33;2.10;;;14.90;90.70;;;;;;4981595;28;20222;-77
2022/09/05 02:21:57;;;;;;;3.37;2.20;;;15.00;91.00;;;;;;4975712;28;20243;-77
2022/09/05 02:24:27;;;;;;;2.67;2.17;;;14.90;91.10;;;;;;4974918;28;20240;-78
2022/09/05 02:27:10;;;;;;;2.43;2.23;;;14.90;91.00;;;;;;4985855;28;20220;-78
2022/09/05 02:29:43;;;;;;;3.20;2.07;;;14.90;91.20;;;;;;4982271;28;20223;-78
2022/09/05 02:32:18;;;;;;;5.93;2.60;;;14.90;91.20;;;;;;4975242;28;20598;-77
2022/09/05 02:34:54;;;;;;;3.43;2.50;;;14.90;91.30;;;;;;4975353;28;20693;-78
2022/09/05 02:37:25;;;;;;;5.63;2.50;;;14.80;91.40;;;;;;4992614;28;20225;-76
2022/09/05 02:39:59;;;;;;;3.87;2.60;;;14.80;91.50;;;;;;4976721;28;20233;-77
2022/09/05 02:42:32;;;;;;;3.53;2.57;;;14.80;91.50;;;;;;4989494;28;20929;-77
2022/09/05 02:45:08;;;;;;;2.90;2.60;;;14.80;91.70;;;;;;4977580;28;20229;-78
2022/09/05 02:47:43;;;;;;;5.43;2.60;;;14.80;91.80;;;;;;4971286;28;20327;-78
2022/09/05 02:50:27;;;;;;;3.53;2.50;;;14.80;91.90;;;;;;4975568;28;20760;-78
2022/09/05 02:52:54;;;;;;;4.13;2.60;;;14.80;92.00;;;;;;4985192;28;20223;-78
2022/09/05 02:55:33;;;;;;;3.37;2.43;;;14.80;91.80;;;;;;4974010;28;20222;-79
2022/09/05 02:58:23;;;;;;;4.20;2.77;;;14.80;92.00;;;;;;4975139;28;20310;-78
2022/09/05 03:00:58;;;;;;;3.70;2.53;;;14.80;92.20;;;;;;4997977;28;20229;-79
2022/09/05 03:03:37;;;;;;;3.40;2.63;;;14.80;92.10;;;;;;4981084;28;20229;-77
2022/09/05 03:06:15;;;;;;;5.60;2.47;;;14.80;92.30;;;;;;4976923;28;20218;-76
2022/09/05 03:08:58;;;;;;;4.60;2.90;;;14.80;92.40;;;;;;4983257;28;20238;-77
2022/09/05 03:11:57;;;;;;;3.97;2.50;;;14.80;92.40;;;;;;4979311;28;20227;-76
2022/09/05 03:14:55;;;;;;;3.27;2.93;;;14.80;92.40;;;;;;4988107;28;20234;-78
2022/09/05 03:17:54;;;;;;;2.90;2.60;;;14.90;92.50;;;;;;4973235;28;20547;-78
2022/09/05 03:20:51;;;;;;;5.40;2.57;;;14.90;92.30;;;;;;4976788;28;20224;-77
2022/09/05 03:24:01;;;;;;;3.13;2.80;;;15.00;92.30;;;;;;4991562;28;20735;-78
2022/09/05 03:26:51;;;;;;;4.37;2.77;;;15.00;92.30;;;;;;4975207;28;20228;-77
2022/09/05 03:29:46;;;;;;;5.60;2.67;;;15.10;92.10;;;;;;4973920;28;20214;-77
2022/09/05 03:32:59;;;;;;;3.30;2.90;;;15.10;92.20;;;;;;4977361;28;20237;-78
2022/09/05 03:36:10;;;;;;;3.13;2.77;;;15.10;92.00;;;;;;4992044;28;20740;-76
2022/09/05 03:39:31;;;;;;;3.70;2.90;;;15.10;91.90;;;;;;4980839;28;20221;-77
2022/09/05 03:42:28;;;;;;;3.43;2.70;;;15.10;91.90;;;;;;4981018;28;20214;-77
2022/09/05 03:45:31;;;;;;;3.67;2.97;;;15.20;91.80;;;;;;4991720;28;20571;-77
2022/09/05 03:48:23;;;;;;;3.93;2.53;;;15.10;91.90;;;;;;4973964;28;20236;-78
2022/09/05 03:51:00;;;;;;;4.80;2.60;;;15.10;91.80;;;;;;4979624;28;20321;-77
2022/09/05 03:53:45;;;;;;;3.70;2.87;;;15.10;91.90;;;;;;4978514;28;20240;-77
2022/09/05 03:56:37;;;;;;;4.03;3.07;;;15.10;91.90;;;;;;4976970;28;20225;-77
2022/09/05 03:59:49;;;;;;;2.93;2.60;;;15.10;91.90;;;;;;4984986;28;20232;-76
2022/09/05 04:02:22;;;;;;;4.10;2.67;;;15.10;92.00;;;;;;4937751;28;20228;-77
2022/09/05 04:05:00;;;;;;;3.30;2.50;;;15.20;91.80;;;;;;4981361;28;20292;-78
2022/09/05 04:07:30;;;;;;;3.70;2.90;;;15.20;91.80;;;;;;4983111;28;20228;-78
2022/09/05 04:10:00;;;;;;;3.63;2.63;;;15.20;91.80;;;;;;4971976;28;20240;-78
2022/09/05 04:12:32;;;;;;;3.97;2.60;;;15.20;91.80;;;;;;4986486;28;20228;-78
2022/09/05 04:15:05;;;;;;;3.07;2.70;;;15.30;91.80;;;;;;4973111;28;20233;-78
2022/09/05 04:17:36;;;;;;;3.83;2.90;;;15.20;91.80;;;;;;4989567;28;20317;-77
2022/09/05 04:20:11;;;;;;;3.33;2.63;;;15.30;91.70;;;;;;4973323;28;20738;-78
2022/09/05 04:23:01;;;;;;;4.60;3.30;;;15.30;91.70;;;;;;4977523;28;20241;-78
2022/09/05 04:25:41;;;;;;;4.87;3.00;;;15.30;92.00;;;;;;4971854;28;20236;-78
2022/09/05 04:28:17;;;;;;;4.27;2.77;;;15.30;91.80;;;;;;4973592;28;20312;-77
2022/09/05 04:30:48;;;;;;;5.40;2.90;;;15.30;91.90;;;;;;4978032;28;20247;-77
2022/09/05 04:33:21;;;;;;;4.63;3.00;;;15.30;91.80;;;;;;4984699;28;20543;-76
2022/09/05 04:35:56;;;;;;;5.70;2.60;;;15.30;91.90;;;;;;4978893;28;20229;-77
2022/09/05 04:38:36;;;;;;;4.67;3.13;;;15.30;91.90;;;;;;4993379;28;20226;-77
2022/09/05 04:41:07;;;;;;;4.47;3.00;;;15.20;92.00;;;;;;4990124;28;20226;-77
2022/09/05 04:43:39;;;;;;;4.80;3.10;;;15.20;91.90;;;;;;4991854;28;20341;-77
2022/09/05 04:46:17;;;;;;;3.37;2.70;;;15.20;92.10;;;;;;4987023;28;20221;-77
2022/09/05 04:48:51;;;;;;;5.30;2.63;;;15.10;92.10;;;;;;4982537;28;20232;-77
2022/09/05 04:51:50;;;;;;;3.13;2.53;;;15.10;92.20;;;;;;4980239;28;20248;-78
2022/09/05 04:54:28;;;;;;;3.47;3.03;;;15.00;92.40;;;;;;4988973;28;20216;-79
2022/09/05 04:57:01;;;;;;;3.60;2.77;;;15.00;92.50;;;;;;4977497;28;20255;-77
2022/09/05 04:59:34;;;;;;;4.97;3.00;;;14.90;92.50;;;;;;4999765;28;20791;-77
2022/09/05 05:02:10;;;;;;;3.23;2.83;;;14.90;92.60;;;;;;4989405;28;20237;-76
2022/09/05 05:04:37;;;;;;;3.07;2.57;;;14.80;92.80;;;;;;4977360;28;20240;-77
2022/09/05 05:07:07;;;;;;;4.50;2.77;;;14.80;92.80;;;;;;4979202;28;20280;-78
2022/09/05 05:09:39;;;;;;;3.23;2.90;;;14.80;93.00;;;;;;4983803;28;20324;-78
2022/09/05 05:12:16;;;;;;;4.50;3.10;;;14.70;93.20;;;;;;4986017;28;20221;-76
2022/09/05 05:14:46;;;;;;;4.83;3.30;;;14.70;93.30;;;;;;4977695;28;20229;-77
2022/09/05 05:17:26;;;;;;;4.20;3.50;;;14.70;93.50;;;;;;4977749;28;20229;-77
2022/09/05 05:20:00;;;;;;;4.30;2.80;;;14.70;93.60;;;;;;4976773;28;20662;-78
2022/09/05 05:22:27;;;;;;;5.23;3.30;;;14.70;93.70;;;;;;4966629;28;20237;-77
2022/09/05 05:24:57;;;;;;;5.20;3.60;;;14.70;93.70;;;;;;4974259;28;20411;-75
2022/09/05 05:27:27;;;;;;;3.57;2.90;;;14.70;93.90;;;;;;4988255;28;21743;-77
2022/09/05 05:30:03;;;;;;;3.50;3.20;;;14.70;94.00;;;;;;4984980;28;20220;-78
2022/09/05 05:32:34;;;;;;;5.10;3.37;;;14.70;94.20;;;;;;5002262;28;20326;-76
2022/09/05 05:35:06;;;;;;;4.90;3.50;;;14.80;94.20;;;;;;4996833;28;20234;-77
2022/09/05 05:37:37;;;;;;;4.30;2.90;;;14.80;94.10;;;;;;4984129;28;20251;-76
2022/09/05 05:40:08;;;;;;;3.87;3.20;;;14.90;94.20;;;;;;4978815;28;20224;-77
2022/09/05 05:42:36;;;;;;;3.70;2.90;;;15.00;94.30;;;;;;4982069;28;20582;-77
2022/09/05 05:45:04;;;;;;;4.57;2.90;;;15.10;94.20;;;;;;4990606;28;20231;-77
2022/09/05 05:47:37;;;;;;;4.60;3.07;;;15.20;94.20;;;;;;4978327;28;20300;-77
2022/09/05 05:50:09;;;;;;;4.50;2.93;;;15.30;94.30;;;;;;4999663;28;20235;-77
2022/09/05 05:53:11;;;;;;;3.87;2.83;;;15.40;94.20;;;;;;4978817;28;20612;-77
2022/09/05 05:56:06;;;;;;;4.30;3.00;;;15.50;94.00;;;;;;4992574;28;20224;-77
2022/09/05 05:58:54;;;;;;;6.73;3.13;;;15.60;93.90;;;;;;4985719;28;20226;-76
2022/09/05 06:02:04;;;;;;;4.90;3.17;;;15.70;93.80;;;;;;4989148;28;20230;-77
2022/09/05 06:05:06;;;;;;;5.43;3.13;;;15.80;93.50;;;;;;4990323;28;20225;-76
2022/09/05 06:07:43;;;;;;;5.43;3.53;;;16.00;93.40;;;;;;4991087;28;20230;-76
2022/09/05 06:10:46;;;;;;;4.73;3.07;;;16.10;93.30;;;;;;4975195;28;20237;-76
2022/09/05 06:13:50;;;;;;;4.87;3.20;;;16.20;93.20;;;;;;4996411;28;20221;-77
2022/09/05 06:17:06;;;;;;;9.63;3.13;;;16.30;93.00;;;;;;4980812;28;20797;-77
2022/09/05 06:20:15;;;;;;;4.18;2.90;;;16.40;92.70;;;;;;5004822;28;20246;-76
2022/09/05 06:23:12;;;;;;;5.20;3.17;;;16.50;92.80;;;;;;4928642;28;20225;-77
2022/09/05 06:26:01;;;;;;;3.87;3.20;;;16.60;92.60;;;;;;4984539;28;20225;-77
2022/09/05 06:28:42;;;;;;;4.20;3.00;;;16.70;92.60;;;;;;4975633;28;20228;-75
2022/09/05 06:31:23;;;;;;;3.70;3.20;;;16.80;92.40;;;;;;4972772;28;20364;-76
2022/09/05 06:34:03;;;;;;;5.70;3.23;;;16.90;92.30;;;;;;4987065;28;20222;-75
2022/09/05 06:36:56;;;;;;;3.40;3.10;;;17.00;92.10;;;;;;4976127;28;20225;-77
2022/09/05 06:39:46;;;;;;;3.83;3.05;;;17.10;91.80;;;;;;4977409;28;20222;-77
2022/09/05 06:42:23;;;;;;;4.10;2.92;;;17.20;91.80;;;;;;4977375;28;20715;-80
2022/09/05 06:45:05;;;;;;;4.20;3.55;;;17.40;91.60;;;;;;4981748;28;20244;-76
2022/09/05 06:47:35;;;;;;;4.20;3.20;;;17.50;91.80;;;;;;4999519;28;20327;-75
2022/09/05 06:50:21;;;;;;;5.85;3.30;;;17.50;91.30;;;;;;4977868;28;20218;-76
2022/09/05 06:53:41;;;;;;;3.60;2.70;;;17.60;91.10;;;;;;4971897;28;20230;-76
2022/09/05 06:56:29;;;;;;;5.20;2.85;;;17.70;90.90;;;;;;4987409;28;20604;-79
2022/09/05 06:59:34;;;;;;;5.30;3.10;;;17.90;90.90;;;;;;4985179;28;20221;-78
2022/09/05 07:02:07;;;;;;;4.47;3.03;;;18.00;90.70;;;;;;4977053;28;20253;-76
2022/09/05 07:04:41;;;;;;;4.28;3.08;;;18.10;90.60;;;;;;4984705;28;20266;-78
2022/09/05 07:07:15;;;;;;;5.78;3.33;;;18.20;90.60;;;;;;4977344;28;20229;-79
2022/09/05 07:09:54;;;;;;;5.65;3.10;;;18.30;90.20;;;;;;4972998;28;20238;-77
2022/09/05 07:12:26;;;;;;;4.10;3.28;;;18.40;90.40;;;;;;4983798;28;20233;-78
2022/09/05 07:15:00;;;;;;;6.55;3.70;;;18.50;90.30;;;;;;4978805;28;20252;-77
2022/09/05 07:17:38;;;;;;;7.28;3.78;;;18.60;90.10;;;;;;4994624;28;20229;-77
2022/09/05 07:20:15;;;;;;;6.25;3.10;;;18.60;90.10;;;;;;4975572;28;20237;-76
2022/09/05 07:22:50;;;;;;;6.03;3.33;;;18.80;90.00;;;;;;4979899;28;20221;-76
2022/09/05 07:25:19;;;;;;;6.00;3.20;;;18.90;89.80;;;;;;4994881;28;20220;-77
2022/09/05 07:27:53;;;;;;;5.68;3.28;;;19.00;90.00;;;;;;4985479;28;20233;-77
2022/09/05 07:30:20;;;;;;;4.70;3.25;;;19.10;90.00;;;;;;5005113;28;20223;-77
2022/09/05 07:32:51;;;;;;;5.35;3.00;;;19.20;89.20;;;;;;4996087;28;20256;-76
2022/09/05 07:35:23;;;;;;;4.00;2.90;;;19.30;89.20;;;;;;4983033;28;20221;-76
2022/09/05 07:37:58;;;;;;;4.60;3.28;;;19.40;89.00;;;;;;4978372;28;20226;-74
2022/09/05 07:40:27;;;;;;;3.60;2.78;;;19.50;88.60;;;;;;4980739;28;20229;-77
2022/09/05 07:43:00;;;;;;;3.47;3.17;;;19.60;88.50;;;;;;4990801;28;20233;-76
2022/09/05 07:45:29;;;;;;;3.85;3.15;;;19.60;87.70;;;;;;4972804;28;20237;-77
2022/09/05 07:48:02;;;;;;;4.97;2.78;;;19.70;87.70;;;;;;4980404;28;20223;-74
2022/09/05 07:50:31;;;;;;;3.72;2.92;;;19.80;87.70;;;;;;4986306;28;20600;-77
2022/09/05 07:53:02;;;;;;;3.45;2.75;;;20.00;88.10;;;;;;4974814;28;20223;-76
2022/09/05 07:55:34;;;;;;;4.40;3.05;;;20.30;87.90;;;;;;4972949;28;20742;-77
2022/09/05 07:58:06;;;;;;;4.80;2.83;;;20.70;86.90;;;;;;4969932;28;20233;-77
2022/09/05 08:00:35;;;;;;;3.38;2.90;;;21.00;85.60;;;;;;4973315;28;20224;-77
2022/09/05 08:03:09;;;;;;;3.53;2.80;;;21.40;84.90;;;;;;4977466;28;20231;-77
2022/09/05 08:05:41;;;;;;;4.68;2.50;;;21.80;83.90;;;;;;4983914;28;20252;-77
2022/09/05 08:08:14;;;;;;;2.92;2.63;;;22.10;83.70;;;;;;4972234;28;20228;-77
2022/09/05 08:10:45;;;;;;;4.40;2.97;;;22.50;83.10;;;;;;4991324;28;20285;-76
2022/09/05 08:13:15;;;;;;;4.72;2.80;;;22.90;81.60;;;;;;4999746;28;20375;-76
2022/09/05 08:15:46;;;;;;;4.15;2.50;;;23.20;80.50;;;;;;4972623;28;20226;-77
2022/09/05 08:18:17;;;;;;;4.63;3.00;;;23.40;79.70;;;;;;4969257;28;20241;-77
2022/09/05 08:20:50;;;;;;;3.03;2.70;;;23.70;78.90;;;;;;4981874;28;20230;-77
2022/09/05 08:23:44;;;;;;;5.22;2.80;;;24.00;78.30;;;;;;4974793;28;20263;-78
2022/09/05 08:26:14;;;;;;;4.32;2.47;;;24.40;77.90;;;;;;4976814;28;20237;-76
2022/09/05 08:28:54;;;;;;;5.22;2.85;;;24.70;76.80;;;;;;4974007;28;20773;-77
2022/09/05 08:31:24;;;;;;;4.80;3.08;;;25.00;75.40;;;;;;4986969;28;20279;-78
2022/09/05 08:33:55;;;;;;;4.22;2.55;;;25.30;75.20;;;;;;4976800;28;20222;-76
2022/09/05 08:36:30;;;;;;;3.40;2.70;;;25.50;74.40;;;;;;4976406;28;20214;-78
2022/09/05 08:39:00;;;;;;;4.05;2.75;;;25.90;73.90;;;;;;4984894;28;20319;-78
2022/09/05 08:41:31;;;;;;;4.03;2.50;;;26.30;73.00;;;;;;4992962;28;20226;-77
2022/09/05 08:44:09;;;;;;;6.55;2.80;;;26.70;71.90;;;;;;4973813;28;20233;-78
2022/09/05 08:46:46;;;;;;;4.38;3.00;;;27.00;69.50;;;;;;4985708;28;20686;-77
2022/09/05 08:49:33;;;;;;;4.63;2.80;;;27.40;69.10;;;;;;4988466;28;20574;-78
2022/09/05 08:52:07;;;;;;;4.40;2.75;;;27.60;68.00;;;;;;4992568;28;20217;-78
2022/09/05 08:54:43;;;;;;;3.67;2.50;;;27.80;68.00;;;;;;5002155;28;20226;-78
2022/09/05 08:57:17;;;;;;;2.83;2.55;;;28.00;66.90;;;;;;4981280;28;20319;-78
2022/09/05 08:59:53;;;;;;;5.10;2.83;;;28.30;66.50;;;;;;4984048;28;20290;-79
2022/09/05 09:02:44;;;;;;;4.45;2.50;;;28.40;64.80;;;;;;4995958;28;20336;-79
2022/09/05 09:05:22;;;;;;;4.10;2.60;;;28.50;64.00;;;;;;4972236;28;20226;-78
2022/09/05 09:07:56;;;;;;;3.17;2.60;;;28.50;64.40;;;;;;4985992;28;20733;-76
2022/09/05 09:10:34;;;;;;;5.65;2.80;;;28.50;64.30;;;;;;4975911;28;20740;-78
2022/09/05 09:13:17;;;;;;;3.30;2.47;;;28.60;63.90;;;;;;4975371;28;20218;-78
2022/09/05 09:15:52;;;;;;;3.60;2.92;;;28.80;63.90;;;;;;4976207;28;20280;-77
2022/09/05 09:18:20;;;;;;;2.83;2.50;;;29.00;63.30;;;;;;4976025;28;20221;-78
2022/09/05 09:20:52;;;;;;;2.95;2.70;;;29.20;63.30;;;;;;4985191;28;20231;-78
2022/09/05 09:23:40;;;;;;;3.20;2.80;;;29.50;62.00;;;;;;4976818;28;20233;-78
2022/09/05 09:26:12;;;;;;;5.28;2.70;;;29.70;61.60;;;;;;4987869;28;20568;-77
2022/09/05 09:28:45;;;;;;;3.53;2.72;;;29.90;61.00;;;;;;4978309;28;20230;-77
2022/09/05 09:31:28;;;;;;;3.25;2.67;;;30.00;60.50;;;;;;4990515;28;20282;-76
2022/09/05 09:34:05;;;;;;;3.55;2.70;;;30.10;60.00;;;;;;4980833;28;20232;-79
2022/09/05 09:37:08;;;;;;;3.80;2.40;;;30.20;59.40;;;;;;5001133;28;20318;-76
2022/09/05 09:39:53;;;;;;;4.15;2.55;;;30.30;59.50;;;;;;4993161;28;20867;-77
2022/09/05 09:42:30;;;;;;;4.03;2.80;;;30.50;59.60;;;;;;4980899;28;20314;-79
2022/09/05 09:45:23;;;;;;;3.53;3.00;;;30.70;60.00;;;;;;4991877;28;20261;-76
2022/09/05 09:48:14;;;;;;;5.82;2.85;;;31.00;59.30;;;;;;5015740;28;20221;-76
2022/09/05 09:51:03;;;;;;;3.38;2.90;;;31.20;58.20;;;;;;5001025;28;20229;-77
2022/09/05 09:53:56;;;;;;;4.32;3.75;;;31.40;57.90;;;;;;5001982;28;20337;-78
2022/09/05 09:57:02;;;;;;;3.97;3.10;;;31.40;56.80;;;;;;4997773;28;20206;-79
2022/09/05 09:59:58;;;;;;;3.30;3.00;;;31.40;56.70;;;;;;4980715;28;20236;-78
2022/09/05 10:02:43;;;;;;;4.35;3.33;;;31.40;56.50;;;;;;4998102;28;20240;-78
2022/09/05 10:05:32;;;;;;;3.63;2.97;;;31.40;56.50;;;;;;4996233;28;20414;-78
2022/09/05 10:08:26;;;;;;;3.70;2.90;;;31.30;54.90;;;;;;4973110;28;20225;-78
2022/09/05 10:11:14;;;;;;;5.75;2.80;;;31.20;55.50;;;;;;4994827;28;20223;-78
2022/09/05 10:14:32;;;;;;;3.22;2.67;;;31.00;55.20;;;;;;4996082;28;20264;-78
2022/09/05 10:17:17;;;;;;;2.88;2.67;;;30.70;55.80;;;;;;4975544;28;20278;-77
2022/09/05 10:20:01;;;;;;;3.67;3.10;;;30.70;56.00;;;;;;4978657;28;20226;-78
2022/09/05 10:22:56;;;;;;;4.75;2.70;;;30.70;56.40;;;;;;4982922;28;20599;-77
2022/09/05 10:25:53;;;;;;;5.45;3.58;;;30.80;55.90;;;;;;4978015;28;20544;-78
2022/09/05 10:28:29;;;;;;;2.60;2.40;;;31.00;55.30;;;;;;4973307;28;20232;-78
2022/09/05 10:31:04;;;;;;;2.55;2.35;;;31.00;55.10;;;;;;4979269;28;20222;-79
2022/09/05 10:33:37;;;;;;;3.05;2.42;;;31.10;55.00;;;;;;5001743;28;20239;-77
2022/09/05 10:36:21;;;;;;;3.20;2.67;;;31.20;54.80;;;;;;4985770;28;20238;-77
2022/09/05 10:38:59;;;;;;;4.15;2.75;;;31.30;53.40;;;;;;4974582;28;20742;-78
2022/09/05 10:41:38;;;;;;;3.20;2.65;;;31.40;53.60;;;;;;4972345;28;20694;-77
2022/09/05 10:44:10;;;;;;;3.47;2.28;;;31.40;52.80;;;;;;4989678;28;20217;-76
2022/09/05 10:46:47;;;;;;;3.80;2.70;;;31.40;53.20;;;;;;4979342;28;20226;-79
2022/09/05 10:49:15;;;;;;;2.83;2.40;;;31.30;52.50;;;;;;4982217;28;20226;-79
2022/09/05 10:51:48;;;;;;;3.72;2.28;;;31.10;52.40;;;;;;4989988;28;20680;-78
2022/09/05 10:54:43;;;;;;;4.10;2.22;;;30.80;52.00;;;;;;4977362;28;20635;-78
2022/09/05 10:57:29;;;;;;;3.83;2.33;;;30.50;53.20;;;;;;4975237;28;20611;-79
2022/09/05 11:00:08;;;;;;;3.92;2.40;;;30.20;53.60;;;;;;4984749;28;20612;-76
2022/09/05 11:02:40;;;;;;;2.95;2.20;;;30.10;53.80;;;;;;4983007;28;20286;-78
2022/09/05 11:05:19;;;;;;;3.40;2.20;;;30.10;53.90;;;;;;4981527;28;20991;-78
2022/09/05 11:07:57;;;;;;;2.90;1.95;;;30.00;53.50;;;;;;4992713;28;20241;-76
2022/09/05 11:10:33;;;;;;;6.10;2.13;;;29.90;53.60;;;;;;4986697;28;20234;-78
2022/09/05 11:13:15;;;;;;;3.60;2.17;;;29.70;53.40;;;;;;4986806;28;20391;-78
2022/09/05 11:15:56;;;;;;;2.20;2.00;;;29.50;53.60;;;;;;4993644;28;20773;-78
2022/09/05 11:18:43;;;;;;;2.85;2.22;;;29.40;54.50;;;;;;4991297;28;20223;-78
2022/09/05 11:21:18;;;;;;;4.97;2.22;;;29.40;54.90;;;;;;4979636;28;20863;-79
2022/09/05 11:23:52;;;;;;;2.40;2.13;;;29.40;54.70;;;;;;4991539;28;20233;-78
2022/09/05 11:26:31;;;;;;;3.53;2.38;;;29.50;54.90;;;;;;4969168;28;20241;-78
2022/09/05 11:29:03;;;;;;;4.03;2.40;;;29.50;54.30;;;;;;5010691;28;20229;-78
2022/09/05 11:31:47;;;;;;;3.50;2.22;;;29.50;53.80;;;;;;4975872;28;20253;-78
2022/09/05 11:35:00;;;;;;;4.10;2.15;;;29.40;53.80;;;;;;4977844;28;20900;-79
2022/09/05 11:37:59;;;;;;;4.15;2.30;;;29.30;54.10;;;;;;4971891;28;21083;-82
2022/09/05 11:40:51;;;;;;;3.53;2.22;;;29.00;53.80;;;;;;4974311;28;20236;-80
2022/09/05 11:43:59;;;;;;;5.47;2.60;;;28.80;54.30;;;;;;4980413;28;20224;-80
2022/09/05 11:46:36;;;;;;;4.45;2.15;;;28.50;54.60;;;;;;4974512;28;20230;-81
2022/09/05 11:49:36;;;;;;;3.22;2.10;;;28.20;55.00;;;;;;4987420;28;20281;-79
2022/09/05 11:52:50;;;;;;;2.10;1.90;;;28.00;55.30;;;;;;4994655;28;20312;-81
2022/09/05 11:55:38;;;;;;;2.97;2.10;;;27.80;55.90;;;;;;4971749;28;20296;-80
2022/09/05 11:58:27;;;;;;;3.60;2.00;;;27.50;56.00;;;;;;4981569;28;20224;-80
2022/09/05 12:01:05;;;;;;;3.60;2.25;;;27.40;56.10;;;;;;4977078;28;20250;-80
2022/09/05 12:03:53;;;;;;;2.30;2.00;;;27.30;56.30;;;;;;4969587;28;20752;-80
2022/09/05 12:06:33;;;;;;;3.63;2.22;;;27.10;56.50;;;;;;4972299;28;20221;-81
2022/09/05 12:09:11;;;;;;;2.40;2.20;;;27.00;56.80;;;;;;4966642;28;21049;-81
2022/09/05 12:11:53;;;;;;;3.83;2.20;;;26.80;56.90;;;;;;4974079;28;20226;-79
2022/09/05 12:14:33;;;;;;;6.30;2.40;;;26.60;57.30;;;;;;4988591;28;20618;-82
2022/09/05 12:17:13;;;;;;;3.30;2.40;;;26.50;57.70;;;;;;4982442;28;20252;-82
2022/09/05 12:19:46;;;;;;;3.75;2.38;;;26.40;58.00;;;;;;4984651;28;20230;-80
2022/09/05 12:22:28;;;;;;;3.40;2.58;;;26.20;57.90;;;;;;4971900;28;20222;-81
2022/09/05 12:25:15;;;;;;;2.75;2.55;;;26.10;58.10;;;;;;4974214;28;20297;-78
2022/09/05 12:27:47;;;;;;;2.30;2.08;;;26.00;58.30;;;;;;4973486;28;20762;-80
2022/09/05 12:30:22;;;;;;;4.10;2.40;;;25.90;58.40;;;;;;4977023;28;20265;-79
2022/09/05 12:32:52;;;;;;;6.35;2.53;;;25.90;58.60;;;;;;4963449;28;20718;-82
2022/09/05 12:35:24;;;;;;;3.03;1.90;;;25.80;58.80;;;;;;4974208;28;20234;-79
2022/09/05 12:37:57;;;;;;;7.18;2.20;;;25.80;59.00;;;;;;4981995;28;20323;-78
2022/09/05 12:40:28;;;;;;;2.40;2.20;;;25.80;58.80;;;;;;5004318;28;20232;-80
2022/09/05 12:42:57;;;;;;;2.75;2.30;;;25.90;59.00;;;;;;4984673;28;20313;-79
2022/09/05 12:45:31;;;;;;;3.58;2.00;;;25.90;58.80;;;;;;4979718;28;20317;-80
2022/09/05 12:48:09;;;;;;;7.63;2.63;;;25.90;58.70;;;;;;4974616;28;20249;-79
2022/09/05 12:50:43;;;;;;;5.35;2.38;;;26.00;58.70;;;;;;4978238;28;20238;-79
2022/09/05 12:53:17;;;;;;;6.18;2.45;;;26.00;58.80;;;;;;4991014;28;20692;-79
2022/09/05 12:55:47;;;;;;;11.73;2.65;;;26.10;58.70;;;;;;4983100;28;20227;-79
2022/09/05 12:58:26;;;;;;;5.05;2.60;;;26.10;58.50;;;;;;4975556;28;20999;-78
2022/09/05 13:01:08;;;;;;;7.00;2.70;;;26.10;58.40;;;;;;4975798;28;20226;-78
2022/09/05 13:03:46;;;;;;;5.70;2.30;;;26.10;58.30;;;;;;4983493;28;20232;-78
2022/09/05 13:06:21;;;;;;;2.50;2.22;;;26.00;58.40;;;;;;4976472;28;20620;-79
2022/09/05 13:08:51;;;;;;;3.40;2.25;;;25.90;58.20;;;;;;4996405;28;21048;-79
2022/09/05 13:11:21;;;;;;;4.57;2.10;;;25.90;58.40;;;;;;4985983;28;20256;-79
2022/09/05 13:13:52;;;;;;;4.55;2.55;;;25.90;58.40;;;;;;4986891;28;21018;-80
2022/09/05 13:16:22;;;;;;;4.93;2.20;;;25.90;58.60;;;;;;4979153;28;20214;-79
2022/09/05 13:18:55;;;;;;;3.35;2.38;;;25.90;58.80;;;;;;4978732;28;20230;-79
2022/09/05 13:21:26;;;;;;;2.90;2.30;;;25.90;58.90;;;;;;4983215;28;20317;-79
2022/09/05 13:24:04;;;;;;;7.70;2.95;;;26.00;59.20;;;;;;4978767;28;20482;-79
2022/09/05 13:26:36;;;;;;;7.45;2.63;;;26.10;59.00;;;;;;4993643;28;20328;-79
2022/09/05 13:29:11;;;;;;;7.70;2.80;;;26.20;58.70;;;;;;4994567;28;20214;-79
2022/09/05 13:31:59;;;;;;;4.18;2.45;;;26.30;58.80;;;;;;4988086;28;20426;-80
2022/09/05 13:34:30;;;;;;;5.63;2.40;;;26.40;58.60;;;;;;4984202;28;20301;-79
2022/09/05 13:37:02;;;;;;;5.13;2.60;;;26.50;58.30;;;;;;5011771;28;20239;-78
2022/09/05 13:39:41;;;;;;;3.50;2.30;;;26.60;58.00;;;;;;4978888;28;20233;-81
2022/09/05 13:42:17;;;;;;;4.95;2.30;;;26.60;58.00;;;;;;4983749;28;20252;-78
2022/09/05 13:44:46;;;;;;;10.18;2.70;;;26.70;58.20;;;;;;4980495;28;20578;-78
2022/09/05 13:47:23;;;;;;;4.18;2.55;;;26.80;58.10;;;;;;4972243;28;20246;-80
2022/09/05 13:50:01;;;;;;;3.50;2.10;;;26.80;57.50;;;;;;4981511;28;20739;-76
2022/09/05 13:52:33;;;;;;;4.22;2.22;;;26.80;57.50;;;;;;4997620;28;20364;-79
2022/09/05 13:55:20;;;;;;;6.63;2.60;;;26.80;57.40;;;;;;4991340;28;20233;-79